createdAt,value
2022-09-07T04:01:10.743Z,22.98
2022-09-07T04:05:13.326Z,23.30
2022-09-07T04:09:16.208Z,23.38
2022-09-07T04:13:18.733Z,23.44
2022-09-07T04:17:22.640Z,23.33
2022-09-07T04:21:26.810Z,23.27
2022-09-07T04:25:29.372Z,23.04
2022-09-07T04:29:32.014Z,23.02
2022-09-07T04:33:36.144Z,22.95
2022-09-07T04:37:38.635Z,22.98
2022-09-07T04:41:41.155Z,22.91
2022-09-07T04:45:43.724Z,22.82
2022-09-07T04:49:51.164Z,23.01
2022-09-07T04:53:55.898Z,22.98
2022-09-07T04:57:58.433Z,22.64
2022-09-07T05:02:01.063Z,22.42
2022-09-07T05:06:06.128Z,22.46
2022-09-07T05:10:09.467Z,22.44
2022-09-07T05:14:12.206Z,22.58
2022-09-07T05:18:14.750Z,22.55
2022-09-07T05:22:19.284Z,22.86
2022-09-07T05:26:24.611Z,22.80
2022-09-07T05:34:52.884Z,22.61
2022-09-07T05:38:59.383Z,22.67
2022-09-07T05:43:01.912Z,22.73
2022-09-07T05:47:04.600Z,22.98
2022-09-07T05:51:07.427Z,23.22
2022-09-07T05:55:28.816Z,23.55
2022-09-07T05:59:32.786Z,23.66
2022-09-07T06:03:36.933Z,23.92
2022-09-07T06:07:39.845Z,24.13
2022-09-07T06:11:43.754Z,24.42
2022-09-07T06:15:46.330Z,24.59
2022-09-07T06:19:48.916Z,24.91
2022-09-07T06:23:52.561Z,25.42
2022-09-07T06:27:56.461Z,25.73
2022-09-07T06:36:23.045Z,24.16
2022-09-07T06:40:25.771Z,22.76
2022-09-07T06:44:29.671Z,22.28
2022-09-07T06:48:32.767Z,22.53
2022-09-07T06:57:00.230Z,23.01
2022-09-07T07:01:08.311Z,23.18
2022-09-07T07:05:11.017Z,23.67
2022-09-07T07:09:14.453Z,22.98
2022-09-07T07:17:20.098Z,24.08
2022-09-07T07:21:22.723Z,24.05
2022-09-07T07:25:25.267Z,24.52
2022-09-07T07:29:28.426Z,24.05
2022-09-07T07:33:33.206Z,24.02
2022-09-07T07:37:36.599Z,24.22
2022-09-07T07:41:56.444Z,24.60
2022-09-07T07:46:05.409Z,25.19
2022-09-07T07:54:33.897Z,25.88
2022-09-07T07:58:36.923Z,26.39
2022-09-07T08:02:39.548Z,26.63
2022-09-07T08:06:44.604Z,26.83
2022-09-07T08:10:47.722Z,26.68
2022-09-07T08:14:50.387Z,26.80
2022-09-07T08:18:53.571Z,26.90
2022-09-07T08:22:57.387Z,27.24
2022-09-07T08:27:00.618Z,27.59
2022-09-07T08:31:05.916Z,27.83
2022-09-07T08:35:09.082Z,28.10
2022-09-07T08:39:12.907Z,28.38
2022-09-07T08:43:23.597Z,28.44
2022-09-07T08:47:37.395Z,28.40
2022-09-07T08:51:44.018Z,28.39
2022-09-07T08:55:51.849Z,28.38
2022-09-07T09:00:03.954Z,28.81
2022-09-07T09:04:16.640Z,28.84
2022-09-07T09:08:33.340Z,29.39
2022-09-07T09:12:55.165Z,29.55
2022-09-07T09:17:01.175Z,29.01
2022-09-07T09:21:04.106Z,28.98
2022-09-07T09:25:18.932Z,28.68
2022-09-07T09:29:24.043Z,28.53
2022-09-07T09:33:28.818Z,28.59
2022-09-07T09:37:36.551Z,28.83
2022-09-07T09:41:40.180Z,28.84
2022-09-07T09:54:45.872Z,29.50
2022-09-07T10:07:52.828Z,29.07
2022-09-07T10:12:07.541Z,29.59
2022-09-07T10:16:12.431Z,30.02
2022-09-07T10:20:34.785Z,30.19
2022-09-07T10:24:40.477Z,30.36
2022-09-07T10:33:09.061Z,30.68
2022-09-07T10:37:19.344Z,30.42
2022-09-07T10:41:28.894Z,30.49
2022-09-07T10:45:42.412Z,30.85
2022-09-07T10:54:32.282Z,31.55
2022-09-07T10:59:02.781Z,31.95
2022-09-07T11:03:24.955Z,32.37
2022-09-07T11:07:44.279Z,32.49
2022-09-07T11:12:03.874Z,33.23
2022-09-07T11:16:50.519Z,33.58
2022-09-07T11:20:41.230Z,32.48
2022-09-07T11:25:29.041Z,32.34
2022-09-07T11:29:34.671Z,32.28
2022-09-07T11:38:25.381Z,32.68
2022-09-07T11:42:49.056Z,32.73
2022-09-07T11:46:57.272Z,32.88
2022-09-07T11:51:03.215Z,32.97
2022-09-07T11:55:11.331Z,32.69
2022-09-07T11:59:32.487Z,33.28
2022-09-07T12:04:04.736Z,33.70
2022-09-07T12:08:19.092Z,33.01
2022-09-07T12:12:46.999Z,33.03
2022-09-07T12:17:05.512Z,33.41
2022-09-07T12:21:38.667Z,33.94
2022-09-07T12:25:41.297Z,33.62
2022-09-07T12:29:45.419Z,33.71
2022-09-07T12:33:49.204Z,33.47
2022-09-07T12:37:53.624Z,33.31
2022-09-07T12:42:38.178Z,33.32
2022-09-07T12:46:49.968Z,33.27
2022-09-07T12:50:58.962Z,33.52
2022-09-07T12:55:27.089Z,34.04
2022-09-07T12:59:50.023Z,34.82
2022-09-07T13:04:12.658Z,35.04
2022-09-07T13:08:32.335Z,35.52
2022-09-07T13:12:57.416Z,34.84
2022-09-07T13:17:41.568Z,34.93
2022-09-07T13:21:48.663Z,34.59
2022-09-07T13:25:57.522Z,34.59
2022-09-07T13:30:04.014Z,33.58
2022-09-07T13:34:31.087Z,33.51
2022-09-07T13:38:37.342Z,33.29
2022-09-07T13:42:40.178Z,32.06
2022-09-07T13:46:51.254Z,31.85
2022-09-07T13:50:59.933Z,31.60
2022-09-07T13:55:14.171Z,31.37
2022-09-07T13:59:20.376Z,31.23
2022-09-07T14:03:26.678Z,31.44
2022-09-07T14:07:31.207Z,31.10
2022-09-07T14:11:41.873Z,30.02
2022-09-07T14:15:46.756Z,30.06
2022-09-07T14:19:52.396Z,31.38
2022-09-07T14:23:58.011Z,32.08
2022-09-07T14:28:02.334Z,31.36
2022-09-07T14:32:10.624Z,31.52
2022-09-07T14:36:39.323Z,32.96
2022-09-07T14:40:37.795Z,32.84
2022-09-07T14:44:44.871Z,32.82
2022-09-07T14:48:50.626Z,33.29
2022-09-07T14:57:32.265Z,32.85
2022-09-07T15:01:38.839Z,32.61
2022-09-07T15:05:48.171Z,32.87
2022-09-07T15:09:51.984Z,33.15
2022-09-07T15:13:57.805Z,34.02
2022-09-07T15:18:07.757Z,33.80
2022-09-07T15:22:13.512Z,33.83
2022-09-07T15:30:41.626Z,32.76
2022-09-07T15:34:44.439Z,32.59
2022-09-07T15:39:03.240Z,32.25
2022-09-07T15:43:20.068Z,32.23
2022-09-07T15:56:08.233Z,31.20
2022-09-07T16:00:13.799Z,30.89
2022-09-07T16:04:16.553Z,30.62
2022-09-07T16:08:26.436Z,30.75
2022-09-07T16:21:17.850Z,31.29
2022-09-07T16:25:20.421Z,31.30
2022-09-07T16:29:22.780Z,31.20
2022-09-07T16:33:35.975Z,30.97
2022-09-07T16:38:43.630Z,30.50
2022-09-07T16:42:01.928Z,30.45
2022-09-07T16:46:05.638Z,30.35
2022-09-07T16:50:10.119Z,30.28
2022-09-07T16:54:15.684Z,30.19
2022-09-07T17:02:40.834Z,29.66
2022-09-07T17:06:44.503Z,29.49
2022-09-07T17:10:47.117Z,29.23
2022-09-07T17:14:49.464Z,29.02
2022-09-07T17:23:16.824Z,28.35
2022-09-07T17:27:19.366Z,28.31
2022-09-07T17:35:46.078Z,27.89
2022-09-07T17:39:49.963Z,27.66
2022-09-07T17:43:54.039Z,27.78
2022-09-07T17:47:56.546Z,27.71
2022-09-07T17:52:00.869Z,27.58
2022-09-07T17:56:06.472Z,27.31
2022-09-07T18:00:11.648Z,27.16
2022-09-07T18:04:14.736Z,27.17
2022-09-07T18:08:17.353Z,27.11
2022-09-07T18:12:22.496Z,27.06
2022-09-07T18:16:27.654Z,27.00
2022-09-07T18:20:32.875Z,26.90
2022-09-07T18:24:36.885Z,26.87
2022-09-07T18:33:07.586Z,26.42
2022-09-07T18:37:12.029Z,26.59
2022-09-07T18:41:15.722Z,26.44
2022-09-07T18:45:28.769Z,26.47
2022-09-07T18:49:31.447Z,26.56
2022-09-07T18:53:34.990Z,26.04
2022-09-07T18:57:38.218Z,25.49
2022-09-07T19:01:42.184Z,25.54
2022-09-07T19:05:53.398Z,25.20
2022-09-07T19:09:55.881Z,24.90
2022-09-07T19:13:59.503Z,24.89
2022-09-07T19:18:05.574Z,24.81
2022-09-07T19:22:08.258Z,24.83
2022-09-07T19:26:11.590Z,25.10
2022-09-07T19:30:15.437Z,24.90
2022-09-07T19:34:20.145Z,25.24
2022-09-07T19:38:22.683Z,25.15
2022-09-07T19:42:26.256Z,24.49
2022-09-07T19:46:28.758Z,24.25
2022-09-07T19:50:33.646Z,24.60
2022-09-07T19:54:36.335Z,24.62
2022-09-07T19:58:40.647Z,24.43
2022-09-07T20:02:43.206Z,24.56
2022-09-07T20:06:49.489Z,24.46
2022-09-07T20:10:52.978Z,24.64
2022-09-07T20:14:55.628Z,24.60
2022-09-07T20:18:58.524Z,24.30
2022-09-07T20:23:02.651Z,24.45
2022-09-07T20:27:05.528Z,24.49
2022-09-07T20:31:09.664Z,24.78
2022-09-07T20:35:12.218Z,24.74
2022-09-07T20:39:17.122Z,24.33
2022-09-07T20:43:19.824Z,24.07
2022-09-07T20:47:22.366Z,24.10
2022-09-07T20:51:25.022Z,23.98
2022-09-07T20:55:28.928Z,23.95
2022-09-07T20:59:31.402Z,23.98
